sensor_id;sensor_type;location;lat;lon;timestamp;pressure;altitude;pressure_sealevel;temperature;humidity
5522;BME280;2783;48.730;8.006;2023-10-13T00:00:56;100117.25;;;20.21;67.27
5522;BME280;2783;48.730;8.006;2023-10-13T00:03:23;100118.09;;;20.22;68.68
5522;BME280;2783;48.730;8.006;2023-10-13T00:05:48;100108.25;;;20.21;68.36
5522;BME280;2783;48.730;8.006;2023-10-13T00:08:17;100113.66;;;20.21;69.30
5522;BME280;2783;48.730;8.006;2023-10-13T00:10:43;100110.09;;;20.20;68.00
5522;BME280;2783;48.730;8.006;2023-10-13T00:13:09;100105.91;;;20.16;66.15
5522;BME280;2783;48.730;8.006;2023-10-13T00:15:44;100109.75;;;20.25;65.66
5522;BME280;2783;48.730;8.006;2023-10-13T00:18:31;100114.75;;;20.31;65.32
5522;BME280;2783;48.730;8.006;2023-10-13T00:21:02;100105.13;;;20.39;65.07
5522;BME280;2783;48.730;8.006;2023-10-13T00:23:40;100101.97;;;20.45;63.28
5522;BME280;2783;48.730;8.006;2023-10-13T00:26:22;100098.94;;;20.50;64.83
5522;BME280;2783;48.730;8.006;2023-10-13T00:28:50;100097.00;;;20.52;65.72
5522;BME280;2783;48.730;8.006;2023-10-13T00:31:27;100098.72;;;20.53;66.47
5522;BME280;2783;48.730;8.006;2023-10-13T00:33:58;100094.41;;;20.50;64.82
5522;BME280;2783;48.730;8.006;2023-10-13T00:36:35;100093.19;;;20.54;63.90
5522;BME280;2783;48.730;8.006;2023-10-13T00:39:00;100090.28;;;20.57;64.90
5522;BME280;2783;48.730;8.006;2023-10-13T00:41:26;100093.00;;;20.57;64.95
5522;BME280;2783;48.730;8.006;2023-10-13T00:44:11;100081.78;;;20.51;65.60
5522;BME280;2783;48.730;8.006;2023-10-13T00:46:38;100094.19;;;20.53;64.51
5522;BME280;2783;48.730;8.006;2023-10-13T00:49:04;100093.00;;;20.57;63.69
5522;BME280;2783;48.730;8.006;2023-10-13T00:51:30;100084.00;;;20.57;63.35
5522;BME280;2783;48.730;8.006;2023-10-13T00:54:07;100081.19;;;20.58;64.66
5522;BME280;2783;48.730;8.006;2023-10-13T00:56:40;100082.91;;;20.59;65.44
5522;BME280;2783;48.730;8.006;2023-10-13T00:59:13;100081.66;;;20.52;65.80
5522;BME280;2783;48.730;8.006;2023-10-13T01:01:39;100086.94;;;20.54;65.77
5522;BME280;2783;48.730;8.006;2023-10-13T01:04:08;100092.66;;;20.49;65.23
5522;BME280;2783;48.730;8.006;2023-10-13T01:06:37;100091.81;;;20.49;65.67
5522;BME280;2783;48.730;8.006;2023-10-13T01:09:10;100087.25;;;20.49;65.36
5522;BME280;2783;48.730;8.006;2023-10-13T01:11:46;100082.72;;;20.50;65.81
5522;BME280;2783;48.730;8.006;2023-10-13T01:14:14;100083.72;;;20.49;64.51
5522;BME280;2783;48.730;8.006;2023-10-13T01:16:42;100084.47;;;20.51;63.47
5522;BME280;2783;48.730;8.006;2023-10-13T01:19:15;100087.72;;;20.56;62.49
5522;BME280;2783;48.730;8.006;2023-10-13T01:21:49;100083.78;;;20.60;62.92
5522;BME280;2783;48.730;8.006;2023-10-13T01:24:15;100077.31;;;20.62;62.82
5522;BME280;2783;48.730;8.006;2023-10-13T01:26:44;100084.44;;;20.63;62.44
5522;BME280;2783;48.730;8.006;2023-10-13T01:29:10;100083.34;;;20.66;62.13
5522;BME280;2783;48.730;8.006;2023-10-13T01:31:43;100043.81;;;20.52;61.50
5522;BME280;2783;48.730;8.006;2023-10-13T01:34:19;100072.88;;;20.61;61.60
5522;BME280;2783;48.730;8.006;2023-10-13T01:36:54;100065.63;;;20.62;61.93
5522;BME280;2783;48.730;8.006;2023-10-13T01:39:24;100067.81;;;20.57;62.03
5522;BME280;2783;48.730;8.006;2023-10-13T01:41:54;100064.56;;;20.52;61.66
5522;BME280;2783;48.730;8.006;2023-10-13T01:44:26;100060.47;;;20.46;62.46
5522;BME280;2783;48.730;8.006;2023-10-13T01:46:53;100052.16;;;20.37;63.67
5522;BME280;2783;48.730;8.006;2023-10-13T01:49:19;100050.56;;;20.22;64.69
5522;BME280;2783;48.730;8.006;2023-10-13T01:51:46;100043.19;;;20.11;65.06
5522;BME280;2783;48.730;8.006;2023-10-13T01:54:13;100050.22;;;20.01;65.73
5522;BME280;2783;48.730;8.006;2023-10-13T01:56:39;100034.75;;;19.91;65.76
5522;BME280;2783;48.730;8.006;2023-10-13T01:59:11;100042.88;;;19.78;67.51
5522;BME280;2783;48.730;8.006;2023-10-13T02:01:37;100031.53;;;19.73;66.61
5522;BME280;2783;48.730;8.006;2023-10-13T02:04:03;100030.00;;;19.69;65.96
5522;BME280;2783;48.730;8.006;2023-10-13T02:06:30;100030.97;;;19.68;65.12
5522;BME280;2783;48.730;8.006;2023-10-13T02:09:00;100018.88;;;19.61;64.80
5522;BME280;2783;48.730;8.006;2023-10-13T02:11:37;100024.38;;;19.59;65.21
5522;BME280;2783;48.730;8.006;2023-10-13T02:14:03;100019.31;;;19.55;67.05
5522;BME280;2783;48.730;8.006;2023-10-13T02:16:28;100022.84;;;19.43;68.63
5522;BME280;2783;48.730;8.006;2023-10-13T02:18:56;100013.66;;;19.33;69.97
5522;BME280;2783;48.730;8.006;2023-10-13T02:21:23;100011.75;;;19.21;70.56
5522;BME280;2783;48.730;8.006;2023-10-13T02:24:00;100015.50;;;19.06;71.88
5522;BME280;2783;48.730;8.006;2023-10-13T02:26:30;100011.91;;;18.93;72.16
5522;BME280;2783;48.730;8.006;2023-10-13T02:29:00;100009.91;;;18.82;72.87
5522;BME280;2783;48.730;8.006;2023-10-13T02:31:32;100007.53;;;18.78;73.50
5522;BME280;2783;48.730;8.006;2023-10-13T02:33:58;100009.00;;;18.69;73.74
5522;BME280;2783;48.730;8.006;2023-10-13T02:36:25;100002.25;;;18.62;72.81
5522;BME280;2783;48.730;8.006;2023-10-13T02:39:05;100001.69;;;18.57;73.46
5522;BME280;2783;48.730;8.006;2023-10-13T02:41:34;100001.03;;;18.54;74.43
5522;BME280;2783;48.730;8.006;2023-10-13T02:44:03;99989.50;;;18.52;74.17
5522;BME280;2783;48.730;8.006;2023-10-13T02:46:33;99996.81;;;18.50;74.35
5522;BME280;2783;48.730;8.006;2023-10-13T02:49:01;99990.66;;;18.48;74.89
5522;BME280;2783;48.730;8.006;2023-10-13T02:51:35;99994.50;;;18.44;74.77
5522;BME280;2783;48.730;8.006;2023-10-13T02:54:01;99993.16;;;18.36;75.51
5522;BME280;2783;48.730;8.006;2023-10-13T02:56:37;99986.53;;;18.28;75.59
5522;BME280;2783;48.730;8.006;2023-10-13T02:59:03;99985.88;;;18.24;75.87
5522;BME280;2783;48.730;8.006;2023-10-13T03:01:33;99990.69;;;18.19;76.02
5522;BME280;2783;48.730;8.006;2023-10-13T03:04:00;99981.81;;;18.17;75.54
5522;BME280;2783;48.730;8.006;2023-10-13T03:06:26;99980.00;;;18.18;74.15
5522;BME280;2783;48.730;8.006;2023-10-13T03:08:59;99972.97;;;18.15;74.23
5522;BME280;2783;48.730;8.006;2023-10-13T03:11:39;99978.28;;;18.17;74.15
5522;BME280;2783;48.730;8.006;2023-10-13T03:14:13;99979.81;;;18.21;73.45
5522;BME280;2783;48.730;8.006;2023-10-13T03:16:53;99963.84;;;18.18;74.01
5522;BME280;2783;48.730;8.006;2023-10-13T03:19:19;99957.59;;;18.17;73.63
5522;BME280;2783;48.730;8.006;2023-10-13T03:21:45;99975.41;;;18.20;73.02
5522;BME280;2783;48.730;8.006;2023-10-13T03:24:20;99960.09;;;18.20;72.50
5522;BME280;2783;48.730;8.006;2023-10-13T03:26:48;99968.00;;;18.23;71.75
5522;BME280;2783;48.730;8.006;2023-10-13T03:29:17;99965.31;;;18.23;71.69
5522;BME280;2783;48.730;8.006;2023-10-13T03:31:47;99958.16;;;18.22;71.81
5522;BME280;2783;48.730;8.006;2023-10-13T03:34:20;99954.59;;;18.22;72.04
5522;BME280;2783;48.730;8.006;2023-10-13T03:36:45;99957.59;;;18.17;71.08
5522;BME280;2783;48.730;8.006;2023-10-13T03:39:23;99962.59;;;18.23;71.23
5522;BME280;2783;48.730;8.006;2023-10-13T03:41:57;99967.59;;;18.29;69.92
5522;BME280;2783;48.730;8.006;2023-10-13T03:44:23;99957.59;;;18.31;69.64
5522;BME280;2783;48.730;8.006;2023-10-13T03:46:53;99963.53;;;18.36;68.80
5522;BME280;2783;48.730;8.006;2023-10-13T03:49:19;99954.31;;;18.41;69.00
5522;BME280;2783;48.730;8.006;2023-10-13T03:51:50;99950.66;;;18.42;69.72
5522;BME280;2783;48.730;8.006;2023-10-13T03:54:19;99956.91;;;18.42;69.60
5522;BME280;2783;48.730;8.006;2023-10-13T03:56:45;99949.91;;;18.40;69.26
5522;BME280;2783;48.730;8.006;2023-10-13T03:59:11;99945.28;;;18.42;69.69
5522;BME280;2783;48.730;8.006;2023-10-13T04:01:40;99946.41;;;18.37;69.87
5522;BME280;2783;48.730;8.006;2023-10-13T04:04:09;99937.19;;;18.27;70.13
5522;BME280;2783;48.730;8.006;2023-10-13T04:06:40;99940.66;;;18.29;70.43
5522;BME280;2783;48.730;8.006;2023-10-13T04:09:23;99933.94;;;18.22;71.05
5522;BME280;2783;48.730;8.006;2023-10-13T04:12:05;99938.84;;;18.16;71.30
5522;BME280;2783;48.730;8.006;2023-10-13T04:14:40;99928.78;;;18.05;70.98
5522;BME280;2783;48.730;8.006;2023-10-13T04:17:24;99938.59;;;18.06;71.28
5522;BME280;2783;48.730;8.006;2023-10-13T04:19:55;99929.75;;;18.04;70.45
5522;BME280;2783;48.730;8.006;2023-10-13T04:22:37;99930.72;;;18.03;70.04
5522;BME280;2783;48.730;8.006;2023-10-13T04:25:16;99930.63;;;18.05;69.50
5522;BME280;2783;48.730;8.006;2023-10-13T04:28:03;99928.59;;;18.08;69.58
5522;BME280;2783;48.730;8.006;2023-10-13T04:30:42;99923.22;;;18.08;69.47
5522;BME280;2783;48.730;8.006;2023-10-13T04:33:23;99918.09;;;18.04;69.74
5522;BME280;2783;48.730;8.006;2023-10-13T04:36:09;99918.19;;;18.02;71.21
5522;BME280;2783;48.730;8.006;2023-10-13T04:38:48;99915.50;;;18.02;71.93
5522;BME280;2783;48.730;8.006;2023-10-13T04:41:36;99913.22;;;17.96;72.71
5522;BME280;2783;48.730;8.006;2023-10-13T04:44:05;99908.03;;;17.93;72.73
5522;BME280;2783;48.730;8.006;2023-10-13T04:46:51;99904.00;;;17.86;71.86
5522;BME280;2783;48.730;8.006;2023-10-13T04:49:19;99898.44;;;17.89;70.82
5522;BME280;2783;48.730;8.006;2023-10-13T04:52:03;99901.88;;;17.91;71.21
5522;BME280;2783;48.730;8.006;2023-10-13T04:54:42;99902.47;;;17.96;70.91
5522;BME280;2783;48.730;8.006;2023-10-13T04:57:16;99897.84;;;17.98;70.57
5522;BME280;2783;48.730;8.006;2023-10-13T04:59:46;99897.44;;;18.04;71.85
5522;BME280;2783;48.730;8.006;2023-10-13T05:02:30;99901.00;;;18.05;71.24
5522;BME280;2783;48.730;8.006;2023-10-13T05:05:08;99889.94;;;18.09;70.57
5522;BME280;2783;48.730;8.006;2023-10-13T05:07:47;99888.69;;;18.15;70.05
5522;BME280;2783;48.730;8.006;2023-10-13T05:10:34;99884.53;;;18.23;69.38
5522;BME280;2783;48.730;8.006;2023-10-13T05:13:18;99884.22;;;18.28;68.96
5522;BME280;2783;48.730;8.006;2023-10-13T05:16:02;99886.59;;;18.32;68.41
5522;BME280;2783;48.730;8.006;2023-10-13T05:18:46;99888.13;;;18.36;68.03
5522;BME280;2783;48.730;8.006;2023-10-13T05:21:30;99885.16;;;18.41;68.61
5522;BME280;2783;48.730;8.006;2023-10-13T05:24:14;99887.84;;;18.41;68.99
5522;BME280;2783;48.730;8.006;2023-10-13T05:26:58;99886.97;;;18.41;69.20
5522;BME280;2783;48.730;8.006;2023-10-13T05:29:44;99884.28;;;18.41;69.74
5522;BME280;2783;48.730;8.006;2023-10-13T05:32:28;99883.34;;;18.42;68.70
5522;BME280;2783;48.730;8.006;2023-10-13T05:35:13;99887.44;;;18.47;69.10
5522;BME280;2783;48.730;8.006;2023-10-13T05:37:58;99884.75;;;18.47;69.06
5522;BME280;2783;48.730;8.006;2023-10-13T05:40:59;99888.88;;;18.53;68.42
5522;BME280;2783;48.730;8.006;2023-10-13T05:43:43;99891.56;;;18.53;68.49
5522;BME280;2783;48.730;8.006;2023-10-13T05:46:27;99895.13;;;18.53;68.62
5522;BME280;2783;48.730;8.006;2023-10-13T05:48:54;99894.34;;;18.51;69.06
5522;BME280;2783;48.730;8.006;2023-10-13T05:51:31;99887.16;;;18.52;69.09
5522;BME280;2783;48.730;8.006;2023-10-13T05:54:17;99889.06;;;18.50;69.10
5522;BME280;2783;48.730;8.006;2023-10-13T05:56:49;99883.69;;;18.50;69.57
5522;BME280;2783;48.730;8.006;2023-10-13T05:59:37;99887.31;;;18.49;69.80
5522;BME280;2783;48.730;8.006;2023-10-13T06:02:22;99887.16;;;18.52;69.18
5522;BME280;2783;48.730;8.006;2023-10-13T06:05:11;99895.75;;;18.57;68.76
5522;BME280;2783;48.730;8.006;2023-10-13T06:07:56;99888.44;;;18.59;67.92
5522;BME280;2783;48.730;8.006;2023-10-13T06:10:41;99883.28;;;18.68;68.11
5522;BME280;2783;48.730;8.006;2023-10-13T06:13:26;99894.50;;;18.75;68.07
5522;BME280;2783;48.730;8.006;2023-10-13T06:16:11;99892.38;;;18.80;67.55
5522;BME280;2783;48.730;8.006;2023-10-13T06:18:55;99898.88;;;18.90;67.28
5522;BME280;2783;48.730;8.006;2023-10-13T06:21:40;99900.19;;;18.97;66.73
5522;BME280;2783;48.730;8.006;2023-10-13T06:24:24;99900.41;;;19.06;66.59
5522;BME280;2783;48.730;8.006;2023-10-13T06:27:08;99884.88;;;19.10;65.52
5522;BME280;2783;48.730;8.006;2023-10-13T06:29:52;99895.78;;;19.21;65.77
5522;BME280;2783;48.730;8.006;2023-10-13T06:32:19;99897.66;;;19.33;64.36
5522;BME280;2783;48.730;8.006;2023-10-13T06:34:45;99899.72;;;19.42;64.36
5522;BME280;2783;48.730;8.006;2023-10-13T06:37:11;99900.06;;;19.50;64.13
5522;BME280;2783;48.730;8.006;2023-10-13T06:39:56;99897.66;;;19.58;63.46
5522;BME280;2783;48.730;8.006;2023-10-13T06:42:25;99898.50;;;19.71;63.22
5522;BME280;2783;48.730;8.006;2023-10-13T06:44:55;99892.88;;;19.74;63.06
5522;BME280;2783;48.730;8.006;2023-10-13T06:47:22;99898.81;;;19.79;62.37
5522;BME280;2783;48.730;8.006;2023-10-13T06:49:48;99898.38;;;19.85;62.29
5522;BME280;2783;48.730;8.006;2023-10-13T06:52:16;99902.34;;;19.92;61.49
5522;BME280;2783;48.730;8.006;2023-10-13T06:54:42;99903.47;;;19.90;61.54
5522;BME280;2783;48.730;8.006;2023-10-13T06:57:09;99903.88;;;19.84;61.31
5522;BME280;2783;48.730;8.006;2023-10-13T06:59:42;99921.41;;;19.78;62.01
5522;BME280;2783;48.730;8.006;2023-10-13T07:02:08;99918.16;;;19.73;62.37
5522;BME280;2783;48.730;8.006;2023-10-13T07:04:35;99910.41;;;19.69;63.67
5522;BME280;2783;48.730;8.006;2023-10-13T07:07:07;99907.91;;;19.78;63.70
5522;BME280;2783;48.730;8.006;2023-10-13T07:09:36;99907.88;;;19.91;60.68
5522;BME280;2783;48.730;8.006;2023-10-13T07:12:03;99909.81;;;20.01;60.39
5522;BME280;2783;48.730;8.006;2023-10-13T07:14:32;99916.38;;;20.22;60.53
5522;BME280;2783;48.730;8.006;2023-10-13T07:17:05;99907.22;;;21.07;56.74
5522;BME280;2783;48.730;8.006;2023-10-13T07:19:33;99911.25;;;22.24;53.61
5522;BME280;2783;48.730;8.006;2023-10-13T07:22:00;99905.78;;;23.92;50.28
5522;BME280;2783;48.730;8.006;2023-10-13T07:24:48;99903.41;;;25.62;45.27
5522;BME280;2783;48.730;8.006;2023-10-13T07:27:20;99903.94;;;26.48;43.65
5522;BME280;2783;48.730;8.006;2023-10-13T07:29:54;99902.34;;;27.69;40.45
5522;BME280;2783;48.730;8.006;2023-10-13T07:32:42;99901.84;;;28.32;39.42
5522;BME280;2783;48.730;8.006;2023-10-13T07:35:15;99897.63;;;28.04;39.08
5522;BME280;2783;48.730;8.006;2023-10-13T07:37:43;99900.47;;;26.29;41.58
5522;BME280;2783;48.730;8.006;2023-10-13T07:40:09;99890.56;;;24.59;44.68
5522;BME280;2783;48.730;8.006;2023-10-13T07:42:55;99890.97;;;23.45;47.82
5522;BME280;2783;48.730;8.006;2023-10-13T07:45:30;99903.63;;;23.03;49.26
5522;BME280;2783;48.730;8.006;2023-10-13T07:48:08;99907.06;;;22.85;50.57
5522;BME280;2783;48.730;8.006;2023-10-13T07:50:41;99900.22;;;23.01;50.84
5522;BME280;2783;48.730;8.006;2023-10-13T07:53:06;99890.09;;;23.44;49.50
5522;BME280;2783;48.730;8.006;2023-10-13T07:55:53;99899.75;;;23.79;48.07
5522;BME280;2783;48.730;8.006;2023-10-13T07:58:24;99902.00;;;23.74;48.15
5522;BME280;2783;48.730;8.006;2023-10-13T08:00:53;99900.59;;;23.49;49.00
5522;BME280;2783;48.730;8.006;2023-10-13T08:03:24;99894.88;;;23.31;48.92
5522;BME280;2783;48.730;8.006;2023-10-13T08:06:09;99899.34;;;23.21;49.26
5522;BME280;2783;48.730;8.006;2023-10-13T08:08:38;99884.47;;;23.16;50.37
5522;BME280;2783;48.730;8.006;2023-10-13T08:11:06;99895.88;;;23.30;50.92
5522;BME280;2783;48.730;8.006;2023-10-13T08:13:48;99899.66;;;23.39;51.21
5522;BME280;2783;48.730;8.006;2023-10-13T08:16:21;99900.44;;;23.51;51.28
5522;BME280;2783;48.730;8.006;2023-10-13T08:18:51;99904.31;;;23.58;51.09
5522;BME280;2783;48.730;8.006;2023-10-13T08:21:18;99898.09;;;23.67;51.13
5522;BME280;2783;48.730;8.006;2023-10-13T08:23:51;99893.47;;;23.88;50.42
5522;BME280;2783;48.730;8.006;2023-10-13T08:26:24;99903.50;;;24.27;48.49
5522;BME280;2783;48.730;8.006;2023-10-13T08:29:01;99902.59;;;24.17;47.71
5522;BME280;2783;48.730;8.006;2023-10-13T08:31:50;99902.97;;;24.33;47.71
5522;BME280;2783;48.730;8.006;2023-10-13T08:34:31;99890.31;;;24.91;45.91
5522;BME280;2783;48.730;8.006;2023-10-13T08:37:09;99889.88;;;25.43;44.47
5522;BME280;2783;48.730;8.006;2023-10-13T08:39:49;99898.41;;;26.58;42.94
5522;BME280;2783;48.730;8.006;2023-10-13T08:45:10;99894.19;;;28.44;38.88
5522;BME280;2783;48.730;8.006;2023-10-13T08:47:52;99899.22;;;29.22;38.18
5522;BME280;2783;48.730;8.006;2023-10-13T08:50:48;99901.53;;;29.90;37.34
5522;BME280;2783;48.730;8.006;2023-10-13T08:53:25;99888.88;;;30.66;36.88
5522;BME280;2783;48.730;8.006;2023-10-13T08:56:10;99884.06;;;30.99;35.18
5522;BME280;2783;48.730;8.006;2023-10-13T08:58:39;99879.13;;;31.17;34.86
5522;BME280;2783;48.730;8.006;2023-10-13T09:01:36;99877.84;;;31.79;34.29
5522;BME280;2783;48.730;8.006;2023-10-13T09:04:17;99882.69;;;31.17;34.04
5522;BME280;2783;48.730;8.006;2023-10-13T09:14:43;99865.09;;;29.57;35.94
5522;BME280;2783;48.730;8.006;2023-10-13T09:17:11;99863.72;;;29.45;34.57
5522;BME280;2783;48.730;8.006;2023-10-13T09:19:55;99854.47;;;29.38;33.99
5522;BME280;2783;48.730;8.006;2023-10-13T09:22:29;99856.94;;;29.96;33.93
5522;BME280;2783;48.730;8.006;2023-10-13T09:25:01;99861.16;;;30.83;33.39
5522;BME280;2783;48.730;8.006;2023-10-13T09:27:30;99859.41;;;31.50;31.77
5522;BME280;2783;48.730;8.006;2023-10-13T09:30:01;99863.22;;;31.49;31.99
5522;BME280;2783;48.730;8.006;2023-10-13T09:33:01;99859.75;;;31.33;31.21
5522;BME280;2783;48.730;8.006;2023-10-13T09:35:30;99856.38;;;31.60;31.58
5522;BME280;2783;48.730;8.006;2023-10-13T09:38:02;99860.34;;;31.43;31.00
5522;BME280;2783;48.730;8.006;2023-10-13T09:40:28;99858.34;;;30.92;31.36
5522;BME280;2783;48.730;8.006;2023-10-13T09:43:00;99849.81;;;31.24;31.67
5522;BME280;2783;48.730;8.006;2023-10-13T09:45:33;99836.47;;;31.58;30.75
5522;BME280;2783;48.730;8.006;2023-10-13T09:48:08;99838.09;;;32.25;30.74
5522;BME280;2783;48.730;8.006;2023-10-13T09:50:43;99831.00;;;32.66;29.86
5522;BME280;2783;48.730;8.006;2023-10-13T09:53:11;99821.84;;;33.01;29.41
5522;BME280;2783;48.730;8.006;2023-10-13T09:55:42;99829.59;;;33.40;30.01
5522;BME280;2783;48.730;8.006;2023-10-13T09:58:11;99827.59;;;33.27;29.11
5522;BME280;2783;48.730;8.006;2023-10-13T10:00:43;99823.81;;;33.35;29.66
5522;BME280;2783;48.730;8.006;2023-10-13T10:03:11;99818.09;;;33.58;28.45
5522;BME280;2783;48.730;8.006;2023-10-13T10:05:59;99814.13;;;34.01;28.72
5522;BME280;2783;48.730;8.006;2023-10-13T10:08:33;99809.44;;;33.95;28.11
5522;BME280;2783;48.730;8.006;2023-10-13T10:16:56;99804.53;;;33.63;28.11
5522;BME280;2783;48.730;8.006;2023-10-13T10:19:26;99803.38;;;33.78;27.98
5522;BME280;2783;48.730;8.006;2023-10-13T10:22:03;99795.03;;;34.06;27.82
5522;BME280;2783;48.730;8.006;2023-10-13T10:24:58;99801.50;;;34.26;27.29
5522;BME280;2783;48.730;8.006;2023-10-13T10:27:31;99798.22;;;34.03;27.54
5522;BME280;2783;48.730;8.006;2023-10-13T10:29:57;99803.53;;;34.04;27.44
5522;BME280;2783;48.730;8.006;2023-10-13T10:32:55;99794.34;;;34.38;27.53
5522;BME280;2783;48.730;8.006;2023-10-13T10:36:00;99796.53;;;34.49;27.32
5522;BME280;2783;48.730;8.006;2023-10-13T10:38:26;99793.59;;;34.70;27.45
5522;BME280;2783;48.730;8.006;2023-10-13T10:40:55;99787.25;;;34.76;27.33
5522;BME280;2783;48.730;8.006;2023-10-13T10:43:36;99779.56;;;34.78;26.89
5522;BME280;2783;48.730;8.006;2023-10-13T10:46:25;99782.09;;;34.60;27.39
5522;BME280;2783;48.730;8.006;2023-10-13T10:48:53;99781.63;;;34.50;27.72
5522;BME280;2783;48.730;8.006;2023-10-13T10:51:28;99774.44;;;34.55;27.49
5522;BME280;2783;48.730;8.006;2023-10-13T10:53:58;99779.81;;;34.96;26.47
5522;BME280;2783;48.730;8.006;2023-10-13T10:56:36;99774.13;;;35.17;26.48
5522;BME280;2783;48.730;8.006;2023-10-13T10:59:05;99779.00;;;35.15;26.26
5522;BME280;2783;48.730;8.006;2023-10-13T11:01:44;99771.53;;;34.90;27.05
5522;BME280;2783;48.730;8.006;2023-10-13T11:04:13;99772.19;;;35.18;26.88
5522;BME280;2783;48.730;8.006;2023-10-13T11:06:53;99766.88;;;34.90;26.20
5522;BME280;2783;48.730;8.006;2023-10-13T11:11:49;99759.31;;;34.45;26.25
5522;BME280;2783;48.730;8.006;2023-10-13T11:14:22;99740.03;;;34.71;27.12
5522;BME280;2783;48.730;8.006;2023-10-13T11:16:52;99739.63;;;35.13;26.23
5522;BME280;2783;48.730;8.006;2023-10-13T11:19:34;99737.94;;;35.25;25.74
5522;BME280;2783;48.730;8.006;2023-10-13T11:22:19;99737.91;;;35.51;26.26
5522;BME280;2783;48.730;8.006;2023-10-13T11:25:07;99726.84;;;35.51;25.56
5522;BME280;2783;48.730;8.006;2023-10-13T11:27:37;99710.28;;;35.12;26.41
5522;BME280;2783;48.730;8.006;2023-10-13T11:30:23;99704.69;;;34.47;26.27
5522;BME280;2783;48.730;8.006;2023-10-13T11:35:37;99698.59;;;35.10;26.65
5522;BME280;2783;48.730;8.006;2023-10-13T11:38:18;99694.91;;;35.49;26.61
5522;BME280;2783;48.730;8.006;2023-10-13T11:40:59;99687.81;;;35.72;25.68
5522;BME280;2783;48.730;8.006;2023-10-13T11:43:35;99683.59;;;35.50;25.80
5522;BME280;2783;48.730;8.006;2023-10-13T11:46:22;99694.47;;;35.58;25.76
5522;BME280;2783;48.730;8.006;2023-10-13T11:51:50;99669.31;;;35.66;26.73
5522;BME280;2783;48.730;8.006;2023-10-13T11:54:17;99671.31;;;35.33;26.73
5522;BME280;2783;48.730;8.006;2023-10-13T11:56:44;99667.34;;;34.90;27.56
5522;BME280;2783;48.730;8.006;2023-10-13T11:59:10;99662.22;;;34.41;27.78
5522;BME280;2783;48.730;8.006;2023-10-13T12:01:48;99656.56;;;34.09;27.00
5522;BME280;2783;48.730;8.006;2023-10-13T12:04:34;99655.75;;;34.15;27.62
5522;BME280;2783;48.730;8.006;2023-10-13T12:07:14;99664.81;;;33.96;27.41
5522;BME280;2783;48.730;8.006;2023-10-13T12:09:43;99655.53;;;34.10;28.17
5522;BME280;2783;48.730;8.006;2023-10-13T12:12:26;99646.91;;;33.72;27.14
5522;BME280;2783;48.730;8.006;2023-10-13T12:14:55;99637.69;;;33.52;27.80
5522;BME280;2783;48.730;8.006;2023-10-13T12:17:28;99640.22;;;33.47;27.70
5522;BME280;2783;48.730;8.006;2023-10-13T12:20:00;99644.13;;;32.97;27.96
5522;BME280;2783;48.730;8.006;2023-10-13T12:22:25;99633.09;;;32.97;28.26
5522;BME280;2783;48.730;8.006;2023-10-13T12:24:57;99632.03;;;32.98;28.86
5522;BME280;2783;48.730;8.006;2023-10-13T12:27:22;99624.28;;;32.53;28.98
5522;BME280;2783;48.730;8.006;2023-10-13T12:29:49;99617.00;;;32.73;29.95
5522;BME280;2783;48.730;8.006;2023-10-13T12:32:17;99615.03;;;33.22;29.40
5522;BME280;2783;48.730;8.006;2023-10-13T12:34:56;99609.44;;;33.09;28.67
5522;BME280;2783;48.730;8.006;2023-10-13T12:37:29;99609.41;;;32.82;29.49
5522;BME280;2783;48.730;8.006;2023-10-13T12:40:09;99598.22;;;32.56;30.52
5522;BME280;2783;48.730;8.006;2023-10-13T12:42:53;99604.34;;;32.30;30.67
5522;BME280;2783;48.730;8.006;2023-10-13T12:45:44;99591.94;;;32.41;30.34
5522;BME280;2783;48.730;8.006;2023-10-13T12:48:29;99593.06;;;33.01;29.41
5522;BME280;2783;48.730;8.006;2023-10-13T12:51:13;99585.97;;;33.26;28.41
5522;BME280;2783;48.730;8.006;2023-10-13T12:53:55;99580.91;;;33.84;28.22
5522;BME280;2783;48.730;8.006;2023-10-13T12:56:29;99584.44;;;34.44;28.26
5522;BME280;2783;48.730;8.006;2023-10-13T12:58:55;99577.09;;;35.15;27.47
5522;BME280;2783;48.730;8.006;2023-10-13T13:01:23;99577.78;;;35.61;27.07
5522;BME280;2783;48.730;8.006;2023-10-13T13:03:52;99567.00;;;35.85;26.82
5522;BME280;2783;48.730;8.006;2023-10-13T13:06:25;99573.19;;;36.18;26.45
5522;BME280;2783;48.730;8.006;2023-10-13T13:08:54;99569.63;;;36.11;26.28
5522;BME280;2783;48.730;8.006;2023-10-13T13:11:20;99565.81;;;36.30;26.49
5522;BME280;2783;48.730;8.006;2023-10-13T13:13:46;99563.59;;;36.45;25.59
5522;BME280;2783;48.730;8.006;2023-10-13T13:16:13;99566.28;;;36.27;25.16
5522;BME280;2783;48.730;8.006;2023-10-13T13:18:38;99557.28;;;36.31;25.15
5522;BME280;2783;48.730;8.006;2023-10-13T13:21:04;99542.84;;;36.29;25.59
5522;BME280;2783;48.730;8.006;2023-10-13T13:23:32;99545.56;;;36.36;25.66
5522;BME280;2783;48.730;8.006;2023-10-13T13:26:00;99547.94;;;36.32;25.68
5522;BME280;2783;48.730;8.006;2023-10-13T13:28:25;99537.19;;;36.42;25.25
5522;BME280;2783;48.730;8.006;2023-10-13T13:30:54;99530.56;;;36.19;25.53
5522;BME280;2783;48.730;8.006;2023-10-13T13:33:19;99530.34;;;35.89;25.74
5522;BME280;2783;48.730;8.006;2023-10-13T13:35:49;99532.16;;;35.70;25.60
5522;BME280;2783;48.730;8.006;2023-10-13T13:38:14;99520.13;;;35.90;25.96
5522;BME280;2783;48.730;8.006;2023-10-13T13:40:59;99526.44;;;35.97;25.85
5522;BME280;2783;48.730;8.006;2023-10-13T13:43:27;99518.19;;;35.08;25.83
5522;BME280;2783;48.730;8.006;2023-10-13T13:46:08;99509.97;;;34.76;26.93
5522;BME280;2783;48.730;8.006;2023-10-13T13:48:38;99502.59;;;34.24;27.51
5522;BME280;2783;48.730;8.006;2023-10-13T13:51:04;99494.69;;;33.69;27.97
5522;BME280;2783;48.730;8.006;2023-10-13T13:53:38;99484.16;;;33.31;28.43
5522;BME280;2783;48.730;8.006;2023-10-13T13:56:08;99487.91;;;33.04;28.87
5522;BME280;2783;48.730;8.006;2023-10-13T13:58:33;99473.97;;;32.78;29.98
5522;BME280;2783;48.730;8.006;2023-10-13T14:01:02;99472.63;;;32.61;29.13
5522;BME280;2783;48.730;8.006;2023-10-13T14:03:41;99466.63;;;32.51;29.30
5522;BME280;2783;48.730;8.006;2023-10-13T14:06:16;99463.09;;;32.36;29.46
5522;BME280;2783;48.730;8.006;2023-10-13T14:09:02;99458.81;;;32.27;28.53
5522;BME280;2783;48.730;8.006;2023-10-13T14:11:31;99456.22;;;32.19;28.54
5522;BME280;2783;48.730;8.006;2023-10-13T14:14:15;99451.63;;;31.98;29.11
5522;BME280;2783;48.730;8.006;2023-10-13T14:17:00;99454.72;;;31.68;28.72
5522;BME280;2783;48.730;8.006;2023-10-13T14:19:33;99448.91;;;31.56;29.25
5522;BME280;2783;48.730;8.006;2023-10-13T14:21:59;99448.31;;;31.40;28.80